CheckWX is a tool to help pilots better visualize weather data.  It is not intended as a substitute for an official pre-flight weather briefing.

03:35:16 UTC

EGNM METAR
Leeds Bradford Airport
Leeds, United Kingdom
Current

45 mins ago

EGNM 170250Z 22024G37KT CAVOK 05/M00 Q0993
Observed
Feb-17 @ 02:50 UTC
Wind
  • 220° at 24 KTS
  • Gusting to 37 KTS
Visibility
10,000+ meters
Flight Rules
VFR
Cloud Levels
  • Clear skies
Temperature
C / 41°F
Dewpoint
C / 32°F
Humidity
70%
Altimeter
29.32" Hg
Pressure
992.92 hPa
Previous

1 hour ago

EGNM 170220Z 22023G37KT 190V250 CAVOK 05/M00 Q0993
Observed
Feb-17 @ 02:20 UTC
Wind
  • 220° at 23 KTS
  • Gusting to 37 KTS
Visibility
10,000+ meters
Flight Rules
VFR
Cloud Levels
  • Clear skies
Temperature
C / 41°F
Dewpoint
C / 32°F
Humidity
70%
Altimeter
29.32" Hg
Pressure
992.92 hPa
Previous

2 hours ago

EGNM 170150Z 22023G37KT CAVOK 05/00 Q0992
Observed
Feb-17 @ 01:50 UTC
Wind
  • 220° at 23 KTS
  • Gusting to 37 KTS
Visibility
10,000+ meters
Flight Rules
VFR
Cloud Levels
  • Clear skies
Temperature
C / 41°F
Dewpoint
C / 32°F
Humidity
70%
Altimeter
29.29" Hg
Pressure
991.92 hPa